Time;durP1;ratioP1;P1;durP2;ratioP2;P2;SDS_P1;SDS_P2;PMS_P1;PMS_P2;Temp;Humidity;BMP_temperature;BMP_pressure;BME280_temperature;BME280_humidity;BME280_pressure;Samples;Min_cycle;Max_cycle;Signal;HPM_P1;HPM_P2
2022/07/01 00:00:36;;;;;;;33.83;9.32;;;19.10;99.90;;;;;;5071314;28;20068;-84
2022/07/01 00:03:04;;;;;;;21.85;9.15;;;19.10;99.90;;;;;;5071325;28;20059;-84
2022/07/01 00:05:31;;;;;;;30.90;9.13;;;19.10;99.90;;;;;;5050855;28;20048;-84
2022/07/01 00:07:59;;;;;;;31.73;9.10;;;19.00;99.90;;;;;;5053646;28;20056;-85
2022/07/01 00:10:26;;;;;;;28.90;8.68;;;19.00;99.90;;;;;;5071848;28;20051;-84
2022/07/01 00:12:53;;;;;;;27.08;9.07;;;19.00;99.90;;;;;;5043752;28;20467;-83
2022/07/01 00:15:22;;;;;;;28.35;8.70;;;19.00;99.90;;;;;;5061731;28;20095;-84
2022/07/01 00:17:50;;;;;;;28.52;9.95;;;18.90;99.90;;;;;;5059583;28;20051;-83
2022/07/01 00:20:18;;;;;;;28.85;9.27;;;18.90;99.90;;;;;;5069901;28;20048;-84
2022/07/01 00:22:46;;;;;;;26.42;8.48;;;18.90;99.90;;;;;;5071586;28;20399;-84
2022/07/01 00:25:13;;;;;;;24.90;9.68;;;18.90;99.90;;;;;;5069266;28;20079;-83
2022/07/01 00:27:41;;;;;;;25.88;8.88;;;18.80;99.90;;;;;;5069665;28;20043;-83
2022/07/01 00:30:10;;;;;;;30.40;8.88;;;18.80;99.90;;;;;;5069325;28;20074;-84
2022/07/01 00:32:38;;;;;;;34.00;10.95;;;18.80;99.90;;;;;;5069592;28;20044;-84
2022/07/01 00:35:07;;;;;;;27.58;9.90;;;18.80;99.90;;;;;;5070889;28;20512;-84
2022/07/01 00:37:34;;;;;;;41.35;9.00;;;18.80;99.90;;;;;;5069656;28;20036;-84
2022/07/01 00:40:01;;;;;;;28.10;9.63;;;18.80;99.90;;;;;;5052966;28;20075;-84
2022/07/01 00:42:30;;;;;;;24.98;9.10;;;18.70;99.90;;;;;;5070607;28;20222;-84
2022/07/01 00:44:58;;;;;;;33.80;9.50;;;18.70;99.90;;;;;;5069912;28;20478;-84
2022/07/01 00:47:26;;;;;;;38.75;10.93;;;18.70;99.90;;;;;;5053193;28;20398;-84
2022/07/01 00:49:54;;;;;;;30.48;10.30;;;18.80;99.90;;;;;;5067215;28;20051;-83
2022/07/01 00:52:21;;;;;;;34.67;9.27;;;18.70;99.90;;;;;;5070695;28;20049;-83
2022/07/01 00:54:49;;;;;;;28.63;9.25;;;18.80;99.90;;;;;;5070767;28;20049;-84
2022/07/01 00:57:16;;;;;;;33.80;9.85;;;18.70;99.90;;;;;;5069190;28;20044;-83
2022/07/01 00:59:43;;;;;;;31.05;9.95;;;18.70;99.90;;;;;;5069124;28;20412;-83
2022/07/01 01:02:11;;;;;;;28.85;9.18;;;18.70;99.90;;;;;;5069499;28;20512;-84
2022/07/01 01:04:39;;;;;;;27.88;10.55;;;18.80;99.90;;;;;;5069266;28;21944;-84
2022/07/01 01:07:07;;;;;;;28.17;9.48;;;18.70;99.90;;;;;;5058471;28;20041;-84
2022/07/01 01:09:35;;;;;;;27.30;9.13;;;18.70;99.90;;;;;;5061708;28;20135;-84
2022/07/01 01:12:02;;;;;;;35.33;9.55;;;18.60;99.90;;;;;;5059832;28;20094;-83
2022/07/01 01:14:30;;;;;;;25.30;9.35;;;18.60;99.90;;;;;;5059681;28;20382;-83
2022/07/01 01:16:57;;;;;;;32.00;9.30;;;18.60;99.90;;;;;;5070874;28;20051;-83
2022/07/01 01:19:24;;;;;;;31.50;10.45;;;18.50;99.90;;;;;;5069199;28;20496;-84
2022/07/01 01:21:54;;;;;;;24.67;10.27;;;18.50;99.90;;;;;;5066851;28;20041;-84
2022/07/01 01:24:21;;;;;;;24.83;9.68;;;18.60;99.90;;;;;;5068807;28;20079;-84
2022/07/01 01:26:49;;;;;;;29.77;10.35;;;18.60;99.90;;;;;;5068945;28;20048;-83
2022/07/01 01:29:16;;;;;;;31.13;10.65;;;18.60;99.90;;;;;;5052366;28;20045;-83
2022/07/01 01:31:44;;;;;;;26.33;10.80;;;18.60;99.90;;;;;;5070211;28;20052;-83
2022/07/01 01:34:11;;;;;;;29.02;9.52;;;18.60;99.90;;;;;;5058078;28;20036;-82
2022/07/01 01:36:39;;;;;;;22.77;8.40;;;18.60;99.90;;;;;;5060046;28;20084;-82
2022/07/01 01:39:10;;;;;;;28.35;11.40;;;18.70;99.90;;;;;;5061459;28;21125;-83
2022/07/01 01:41:37;;;;;;;32.90;10.55;;;18.60;99.90;;;;;;5051362;28;20465;-83
2022/07/01 01:44:05;;;;;;;33.55;10.27;;;18.60;99.90;;;;;;5069118;28;20098;-83
2022/07/01 01:46:32;;;;;;;36.25;10.43;;;18.60;99.90;;;;;;5067243;28;20509;-84
2022/07/01 01:49:00;;;;;;;23.45;9.85;;;18.60;99.90;;;;;;5068575;28;20094;-83
2022/07/01 01:51:28;;;;;;;21.48;10.40;;;18.60;99.90;;;;;;5041214;28;20037;-84
2022/07/01 01:53:55;;;;;;;24.50;9.43;;;18.60;99.90;;;;;;5051975;28;20465;-84
2022/07/01 01:56:24;;;;;;;24.95;10.05;;;18.60;99.90;;;;;;5068300;28;20139;-84
2022/07/01 01:58:52;;;;;;;28.13;10.13;;;18.60;99.90;;;;;;5048985;28;20040;-84
2022/07/01 02:01:20;;;;;;;30.63;10.30;;;18.60;99.90;;;;;;5069749;28;20110;-84
2022/07/01 02:03:49;;;;;;;27.77;10.25;;;18.50;99.90;;;;;;5057441;28;20045;-84
2022/07/01 02:06:18;;;;;;;26.33;10.13;;;18.50;99.90;;;;;;5058495;28;20104;-84
2022/07/01 02:08:45;;;;;;;35.15;10.13;;;18.60;99.90;;;;;;5059420;28;20358;-85
2022/07/01 02:11:13;;;;;;;25.65;9.32;;;18.60;99.90;;;;;;5046407;28;20068;-84
2022/07/01 02:13:42;;;;;;;23.75;10.13;;;18.60;99.90;;;;;;5051441;28;20051;-84
2022/07/01 02:16:29;;;;;;;26.58;10.30;;;18.60;99.90;;;;;;5068002;28;20454;-84
2022/07/01 02:18:56;;;;;;;19.80;10.25;;;18.60;99.90;;;;;;5068352;28;20074;-84
2022/07/01 02:21:24;;;;;;;25.35;10.73;;;18.70;99.90;;;;;;5069297;28;20052;-83
2022/07/01 02:23:52;;;;;;;27.92;9.90;;;18.70;99.90;;;;;;5069414;28;20513;-83
2022/07/01 02:26:19;;;;;;;26.58;10.23;;;18.70;99.90;;;;;;5051706;28;20143;-83
2022/07/01 02:28:48;;;;;;;26.35;9.88;;;18.70;99.90;;;;;;5068066;28;20106;-83
2022/07/01 02:31:15;;;;;;;28.23;10.05;;;18.70;99.90;;;;;;5069029;28;20055;-83
2022/07/01 02:33:42;;;;;;;28.17;10.20;;;18.70;99.90;;;;;;5069067;28;20072;-84
2022/07/01 02:36:10;;;;;;;26.77;10.20;;;18.70;99.90;;;;;;5067748;28;20068;-83
2022/07/01 02:38:37;;;;;;;25.67;10.35;;;18.70;99.90;;;;;;5068237;28;20405;-84
2022/07/01 02:41:05;;;;;;;35.70;10.02;;;18.80;99.90;;;;;;5068602;28;20143;-84
2022/07/01 02:43:32;;;;;;;30.42;10.90;;;18.80;99.90;;;;;;5048456;28;20067;-84
2022/07/01 02:46:01;;;;;;;25.10;11.23;;;18.90;99.90;;;;;;5051125;28;20056;-84
2022/07/01 02:48:28;;;;;;;29.10;11.10;;;19.00;99.90;;;;;;5051077;28;20056;-83
2022/07/01 02:50:55;;;;;;;22.77;9.75;;;19.00;99.90;;;;;;5067888;28;20068;-83
2022/07/01 02:53:23;;;;;;;25.98;10.75;;;19.10;99.90;;;;;;5070196;28;20048;-84
2022/07/01 02:55:51;;;;;;;33.83;9.90;;;19.30;99.90;;;;;;5054150;28;20466;-84
2022/07/01 02:58:18;;;;;;;24.60;10.77;;;19.30;99.90;;;;;;5062888;28;20071;-84
2022/07/01 03:00:48;;;;;;;24.30;9.48;;;19.50;99.90;;;;;;5095456;28;20037;-83
2022/07/01 03:03:17;;;;;;;27.80;8.85;;;19.60;99.90;;;;;;5052357;28;20041;-84
2022/07/01 03:05:44;;;;;;;19.92;9.57;;;19.70;99.90;;;;;;5072829;28;20053;-85
2022/07/01 03:08:12;;;;;;;25.60;9.95;;;19.80;99.90;;;;;;5071576;28;20440;-85
2022/07/01 03:10:39;;;;;;;25.92;9.88;;;19.90;99.90;;;;;;5061932;28;20074;-85
2022/07/01 03:13:07;;;;;;;31.30;9.43;;;19.90;99.90;;;;;;5062990;28;20052;-84
2022/07/01 03:15:34;;;;;;;20.60;10.18;;;20.00;99.90;;;;;;5068603;28;20071;-84
2022/07/01 03:18:01;;;;;;;22.65;10.48;;;20.10;99.90;;;;;;5070420;28;20072;-85
2022/07/01 03:20:30;;;;;;;27.00;10.55;;;20.20;99.90;;;;;;5059589;28;20143;-83
2022/07/01 03:22:57;;;;;;;21.27;10.48;;;20.30;99.90;;;;;;5072280;28;20128;-84
2022/07/01 03:25:25;;;;;;;30.05;9.52;;;20.50;99.90;;;;;;5054129;28;20048;-84
2022/07/01 03:27:52;;;;;;;21.83;10.13;;;20.60;99.90;;;;;;5069154;28;20041;-84
2022/07/01 03:30:20;;;;;;;33.08;9.57;;;20.70;99.90;;;;;;5071837;28;20044;-84
2022/07/01 03:32:48;;;;;;;27.73;8.75;;;20.80;99.90;;;;;;5061016;28;20041;-84
2022/07/01 03:38:02;;;;;;;23.40;9.05;;;21.00;99.90;;;;;;5054104;28;20099;-82
2022/07/01 03:40:29;;;;;;;24.48;8.50;;;21.00;99.90;;;;;;5058974;28;20075;-82
2022/07/01 03:42:56;;;;;;;20.08;9.52;;;21.10;99.90;;;;;;5062249;28;20103;-82
2022/07/01 03:45:24;;;;;;;21.52;8.68;;;21.20;99.90;;;;;;5060752;28;20080;-83
2022/07/01 03:47:51;;;;;;;26.95;8.88;;;21.30;99.90;;;;;;5060025;28;20043;-87
2022/07/01 03:50:19;;;;;;;17.73;8.13;;;21.40;99.90;;;;;;5043887;28;20163;-85
2022/07/01 03:52:46;;;;;;;25.23;9.15;;;21.50;99.90;;;;;;5044414;28;20041;-85
2022/07/01 03:55:14;;;;;;;20.15;8.07;;;21.50;99.90;;;;;;5067404;28;20127;-84
2022/07/01 03:57:41;;;;;;;19.60;8.70;;;21.60;99.90;;;;;;5053468;28;20045;-83
2022/07/01 04:00:10;;;;;;;16.10;7.10;;;21.70;99.90;;;;;;5071760;28;20040;-84
2022/07/01 04:02:37;;;;;;;14.93;6.38;;;21.80;99.90;;;;;;5070328;28;20116;-84
2022/07/01 04:05:05;;;;;;;13.05;6.03;;;21.80;99.90;;;;;;5071024;28;20059;-84
2022/07/01 04:07:32;;;;;;;20.08;7.00;;;21.90;99.90;;;;;;5060255;28;20056;-83
2022/07/01 04:10:00;;;;;;;9.18;5.78;;;22.00;99.90;;;;;;5060081;28;20053;-82
2022/07/01 04:12:29;;;;;;;17.70;6.65;;;22.10;99.90;;;;;;5061227;28;20044;-83
2022/07/01 04:14:56;;;;;;;14.63;5.47;;;22.20;99.90;;;;;;5051279;28;20045;-84
2022/07/01 04:17:23;;;;;;;10.10;6.10;;;22.30;99.90;;;;;;5070997;28;20576;-84
2022/07/01 04:19:51;;;;;;;11.52;5.68;;;22.40;99.90;;;;;;5042268;28;20068;-84
2022/07/01 04:22:32;;;;;;;13.05;5.60;;;22.50;99.90;;;;;;5060407;28;20112;-84
2022/07/01 04:25:00;;;;;;;10.40;5.20;;;22.60;99.90;;;;;;5095343;28;20424;-84
2022/07/01 04:27:29;;;;;;;14.27;5.80;;;22.70;99.90;;;;;;5058814;28;20146;-84
2022/07/01 04:29:57;;;;;;;11.77;5.40;;;22.80;99.90;;;;;;5066899;28;20048;-84
2022/07/01 04:32:24;;;;;;;11.82;4.63;;;22.90;99.90;;;;;;5069479;28;20047;-84
2022/07/01 04:34:52;;;;;;;14.55;5.55;;;22.90;99.90;;;;;;5058382;28;20155;-83
2022/07/01 04:37:19;;;;;;;16.25;4.93;;;23.00;98.80;;;;;;5042671;28;20048;-83
2022/07/01 04:39:46;;;;;;;12.60;4.90;;;23.10;96.30;;;;;;5060271;28;20063;-84
2022/07/01 04:42:14;;;;;;;11.95;5.30;;;23.30;95.60;;;;;;5068049;28;20445;-84
2022/07/01 04:44:48;;;;;;;13.13;5.38;;;23.30;94.20;;;;;;5068624;28;20232;-84
2022/07/01 04:47:15;;;;;;;19.75;5.03;;;23.40;94.10;;;;;;5067894;28;20040;-85
2022/07/01 04:49:43;;;;;;;14.45;4.50;;;23.50;92.60;;;;;;5069112;28;20071;-84
2022/07/01 04:52:11;;;;;;;9.70;4.05;;;23.60;90.90;;;;;;5057522;28;20441;-85
2022/07/01 04:54:38;;;;;;;14.38;4.68;;;23.70;90.80;;;;;;5070710;28;20093;-85
2022/07/01 04:57:05;;;;;;;15.40;5.05;;;23.80;89.90;;;;;;5070331;28;20059;-83
2022/07/01 04:59:33;;;;;;;14.18;4.30;;;23.90;88.50;;;;;;5070706;28;20400;-85
2022/07/01 05:02:01;;;;;;;18.02;5.10;;;24.00;86.80;;;;;;5068917;28;20072;-84
2022/07/01 05:04:29;;;;;;;14.48;5.38;;;24.10;85.70;;;;;;5070006;28;20049;-84
2022/07/01 05:06:56;;;;;;;12.48;4.18;;;24.20;84.90;;;;;;5068795;28;20075;-85
2022/07/01 05:09:23;;;;;;;11.68;4.68;;;24.30;82.40;;;;;;5058509;28;20496;-85
2022/07/01 05:11:51;;;;;;;7.75;4.30;;;24.40;80.90;;;;;;5076075;28;20045;-84
2022/07/01 05:14:18;;;;;;;10.77;4.03;;;24.50;79.80;;;;;;5059993;28;20041;-84
2022/07/01 05:16:46;;;;;;;10.80;5.15;;;24.60;79.20;;;;;;5058476;28;20044;-84
2022/07/01 05:22:00;;;;;;;;;;;24.80;77.90;;;;;;5034521;28;20161;-85
2022/07/01 05:24:30;;;;;;;12.95;4.82;;;24.90;76.20;;;;;;5070157;28;19978;-84
2022/07/01 05:26:58;;;;;;;9.77;4.55;;;25.10;76.70;;;;;;5067552;28;20052;-85
2022/07/01 05:29:26;;;;;;;10.15;3.78;;;25.20;75.80;;;;;;5071009;28;20071;-85
2022/07/01 05:31:54;;;;;;;9.52;3.70;;;25.40;75.00;;;;;;5069861;28;20044;-85
2022/07/01 05:34:23;;;;;;;8.70;3.95;;;25.50;72.90;;;;;;5058745;28;20049;-84
2022/07/01 05:36:50;;;;;;;9.10;4.15;;;25.60;71.20;;;;;;5059544;28;20049;-84
2022/07/01 05:39:17;;;;;;;11.80;4.15;;;25.70;71.00;;;;;;5059691;28;20132;-84
2022/07/01 05:41:45;;;;;;;5.53;3.58;;;25.80;70.30;;;;;;5070496;28;20051;-85
2022/07/01 05:44:12;;;;;;;10.80;3.22;;;26.10;69.00;;;;;;5068677;28;20071;-85
2022/07/01 05:46:40;;;;;;;6.07;3.60;;;26.50;68.80;;;;;;5052437;28;20048;-85
2022/07/01 05:49:07;;;;;;;10.25;3.58;;;27.00;68.10;;;;;;5058601;28;20055;-85
2022/07/01 05:51:36;;;;;;;13.40;4.57;;;27.50;66.90;;;;;;5074009;28;20072;-85
2022/07/01 05:54:04;;;;;;;8.85;4.03;;;28.00;65.30;;;;;;5051568;28;20044;-85
2022/07/01 05:56:32;;;;;;;5.28;3.60;;;28.60;63.60;;;;;;5068167;28;20049;-86
2022/07/01 05:58:59;;;;;;;11.88;3.78;;;29.00;62.60;;;;;;5069756;28;20117;-85
2022/07/01 06:01:27;;;;;;;11.18;3.88;;;29.50;61.20;;;;;;5069763;28;20482;-87
2022/07/01 06:03:54;;;;;;;12.73;4.30;;;29.90;59.90;;;;;;5067355;28;20036;-87
2022/07/01 06:06:24;;;;;;;11.82;4.63;;;30.30;59.80;;;;;;5069325;28;20516;-87
2022/07/01 06:08:55;;;;;;;9.82;3.97;;;30.80;58.70;;;;;;5059382;28;20055;-85
2022/07/01 06:11:22;;;;;;;;;;;31.40;56.80;;;;;;5092861;28;20086;-85
2022/07/01 06:13:50;;;;;;;6.65;3.20;;;31.80;55.40;;;;;;5091003;28;20365;-88
2022/07/01 06:16:17;;;;;;;10.80;4.10;;;31.90;55.00;;;;;;5060900;28;20041;-87
2022/07/01 06:18:45;;;;;;;11.93;3.35;;;32.20;53.90;;;;;;5060488;28;20037;-88
2022/07/01 06:21:14;;;;;;;7.32;3.70;;;32.50;53.10;;;;;;5056867;28;20041;-86
2022/07/01 06:23:46;;;;;;;11.30;3.97;;;32.90;52.80;;;;;;5058450;28;20147;-86
2022/07/01 06:26:18;;;;;;;10.48;4.07;;;33.10;52.60;;;;;;5066427;28;20052;-86
2022/07/01 06:28:45;;;;;;;14.55;4.88;;;33.40;52.40;;;;;;5073338;28;20479;-85
2022/07/01 06:31:13;;;;;;;17.25;6.32;;;33.60;52.40;;;;;;5061696;28;20126;-84
2022/07/01 06:33:41;;;;;;;11.30;5.00;;;33.80;50.90;;;;;;5073296;28;20139;-84
2022/07/01 06:36:08;;;;;;;13.23;3.90;;;34.00;50.50;;;;;;5054794;28;20417;-85
2022/07/01 06:38:36;;;;;;;17.65;3.88;;;34.20;51.20;;;;;;5070606;28;20075;-87
2022/07/01 06:44:02;;;;;;;8.00;4.13;;;34.50;49.60;;;;;;5018494;28;20092;-84
2022/07/01 06:46:30;;;;;;;13.57;3.92;;;34.80;48.90;;;;;;5052633;28;20041;-85
2022/07/01 06:48:58;;;;;;;11.95;4.10;;;35.10;48.30;;;;;;5061537;28;20076;-87
2022/07/01 06:51:26;;;;;;;10.18;3.78;;;35.40;47.50;;;;;;5063655;28;20083;-86
2022/07/01 06:53:53;;;;;;;13.90;4.00;;;35.70;46.30;;;;;;5070189;28;20052;-86
2022/07/01 06:56:21;;;;;;;7.95;4.32;;;36.00;46.60;;;;;;5072914;28;20048;-83
2022/07/01 06:58:48;;;;;;;14.45;3.90;;;36.30;46.80;;;;;;5071429;28;20048;-83
2022/07/01 07:01:17;;;;;;;11.65;4.40;;;36.40;46.00;;;;;;5072867;28;20044;-83
2022/07/01 07:03:44;;;;;;;13.65;3.92;;;36.50;46.20;;;;;;5074077;28;20496;-82
2022/07/01 07:06:12;;;;;;;9.73;3.92;;;36.80;45.60;;;;;;5069988;28;20048;-81
2022/07/01 07:08:39;;;;;;;8.43;4.15;;;36.90;45.10;;;;;;5071102;28;20451;-83
2022/07/01 07:11:08;;;;;;;10.60;3.63;;;37.20;45.20;;;;;;5071998;28;20044;-83
2022/07/01 07:13:36;;;;;;;8.75;5.00;;;37.30;45.00;;;;;;5066819;28;20091;-84
2022/07/01 07:16:03;;;;;;;10.80;3.80;;;37.50;46.10;;;;;;5070583;28;20037;-84
2022/07/01 07:18:32;;;;;;;7.78;3.75;;;37.60;44.30;;;;;;5069785;28;20140;-85
2022/07/01 07:20:59;;;;;;;9.63;4.18;;;37.90;44.20;;;;;;5070816;28;20554;-84
2022/07/01 07:23:27;;;;;;;12.38;3.50;;;38.00;45.30;;;;;;5068212;28;20037;-82
2022/07/01 07:25:54;;;;;;;9.13;4.10;;;38.20;45.20;;;;;;5071743;28;20047;-83
2022/07/01 07:28:22;;;;;;;6.82;3.92;;;38.30;45.30;;;;;;5102437;28;20052;-83
2022/07/01 07:30:49;;;;;;;14.52;6.45;;;38.40;44.00;;;;;;5069968;28;20049;-84
2022/07/01 07:33:17;;;;;;;6.53;4.05;;;38.50;43.90;;;;;;5070587;28;20496;-84
2022/07/01 07:35:45;;;;;;;10.23;4.30;;;38.60;44.20;;;;;;5053772;28;20068;-84
2022/07/01 07:38:13;;;;;;;10.20;4.60;;;38.70;44.50;;;;;;5069000;28;20053;-84
2022/07/01 07:40:41;;;;;;;14.13;4.63;;;38.80;44.00;;;;;;5068519;28;20243;-85
2022/07/01 07:43:09;;;;;;;14.02;5.03;;;38.90;44.60;;;;;;5071627;28;20087;-84
2022/07/01 07:45:36;;;;;;;14.50;4.85;;;39.20;44.60;;;;;;5072357;28;20075;-83
2022/07/01 07:48:05;;;;;;;14.85;4.57;;;39.30;44.10;;;;;;5071803;28;20149;-85
2022/07/01 07:50:33;;;;;;;10.70;5.13;;;39.50;43.40;;;;;;5069181;28;20110;-85
2022/07/01 07:53:01;;;;;;;10.68;4.63;;;39.60;43.30;;;;;;5071533;28;20098;-84
2022/07/01 07:55:29;;;;;;;9.85;3.95;;;39.90;43.60;;;;;;5070460;28;20049;-85
2022/07/01 07:57:56;;;;;;;12.15;4.85;;;39.90;42.60;;;;;;5069753;28;20131;-84
2022/07/01 08:00:24;;;;;;;17.77;3.95;;;39.90;44.40;;;;;;5071718;28;20397;-80
2022/07/01 08:02:51;;;;;;;7.47;3.67;;;40.00;43.40;;;;;;5071892;28;20566;-83
2022/07/01 08:05:18;;;;;;;5.57;3.97;;;40.10;43.50;;;;;;5071549;28;20539;-84
2022/07/01 08:07:46;;;;;;;13.35;4.38;;;40.40;44.30;;;;;;5071259;28;20142;-85
2022/07/01 08:10:14;;;;;;;9.35;3.78;;;40.60;43.80;;;;;;5071788;28;20123;-81
2022/07/01 08:12:42;;;;;;;11.20;4.60;;;40.70;42.40;;;;;;5071846;28;20059;-81
2022/07/01 08:15:10;;;;;;;17.98;4.78;;;40.90;43.30;;;;;;5071810;28;20099;-81
2022/07/01 08:17:38;;;;;;;8.98;3.83;;;41.10;42.90;;;;;;5061637;28;20083;-82
2022/07/01 08:20:06;;;;;;;7.05;3.72;;;41.20;42.20;;;;;;5060227;28;20079;-82
2022/07/01 08:22:33;;;;;;;4.95;3.63;;;41.40;42.80;;;;;;5043414;28;20044;-82
2022/07/01 08:25:02;;;;;;;9.77;3.80;;;41.50;42.20;;;;;;5065817;28;20544;-84
2022/07/01 08:27:31;;;;;;;8.15;3.97;;;41.60;42.90;;;;;;5072544;28;20136;-83
2022/07/01 08:30:36;;;;;;;5.25;3.78;;;41.60;42.50;;;;;;5069999;28;20060;-79
2022/07/01 08:33:04;;;;;;;10.57;6.43;;;41.70;42.30;;;;;;5071114;28;20094;-80
2022/07/01 08:35:31;;;;;;;5.80;3.95;;;41.90;43.00;;;;;;5071687;28;20127;-79
2022/07/01 08:37:59;;;;;;;7.00;4.20;;;42.00;43.40;;;;;;5068900;28;20136;-78
2022/07/01 08:40:27;;;;;;;4.45;3.30;;;42.10;43.40;;;;;;5065194;28;20083;-79
2022/07/01 08:42:58;;;;;;;4.38;3.53;;;42.20;42.20;;;;;;5068512;28;20041;-79
2022/07/01 08:45:27;;;;;;;3.83;3.50;;;42.30;42.90;;;;;;5058813;28;20044;-79
2022/07/01 08:48:00;;;;;;;11.70;6.05;;;42.50;42.70;;;;;;5044151;28;20421;-79
2022/07/01 08:50:28;;;;;;;4.70;4.30;;;42.70;41.80;;;;;;5060201;28;20045;-80
2022/07/01 08:52:56;;;;;;;4.72;3.97;;;42.80;41.10;;;;;;5065815;28;20041;-79
2022/07/01 08:55:24;;;;;;;7.78;4.10;;;43.00;41.50;;;;;;5068972;28;20056;-80
2022/07/01 08:57:52;;;;;;;5.63;3.30;;;43.30;41.70;;;;;;5070619;28;20522;-80
2022/07/01 09:00:24;;;;;;;5.47;3.50;;;43.40;41.00;;;;;;5065133;28;20068;-79
2022/07/01 09:03:04;;;;;;;3.47;3.20;;;43.50;41.50;;;;;;5067749;28;20091;-78
2022/07/01 09:05:32;;;;;;;4.05;3.70;;;43.50;39.70;;;;;;5068719;28;20106;-78
2022/07/01 09:08:01;;;;;;;7.60;3.97;;;43.50;40.60;;;;;;5068398;28;20055;-78
2022/07/01 09:10:30;;;;;;;6.05;3.83;;;43.60;40.70;;;;;;5067598;28;20048;-79
2022/07/01 09:13:04;;;;;;;6.05;5.10;;;43.70;41.10;;;;;;5064806;28;20044;-78
2022/07/01 09:15:33;;;;;;;4.25;3.85;;;43.80;40.40;;;;;;5067598;28;20143;-78
2022/07/01 09:18:06;;;;;;;5.22;4.03;;;43.90;40.10;;;;;;5086173;28;20519;-77
2022/07/01 09:20:35;;;;;;;4.97;4.13;;;44.10;39.40;;;;;;5068065;28;20056;-78
2022/07/01 09:23:06;;;;;;;5.82;3.95;;;44.00;39.60;;;;;;5065953;28;20051;-76
2022/07/01 09:25:39;;;;;;;4.80;4.40;;;44.00;40.10;;;;;;5060259;28;20048;-78
2022/07/01 09:28:09;;;;;;;4.93;4.53;;;44.00;39.70;;;;;;5067204;28;20048;-79
2022/07/01 09:30:38;;;;;;;5.03;4.53;;;44.00;39.80;;;;;;5066772;28;20055;-81
2022/07/01 09:33:13;;;;;;;5.15;4.53;;;44.20;40.10;;;;;;5068642;28;20094;-80
2022/07/01 09:35:41;;;;;;;6.82;4.25;;;44.50;40.10;;;;;;5068570;28;20568;-79
2022/07/01 09:38:11;;;;;;;5.65;5.10;;;44.70;39.10;;;;;;5065590;28;20056;-80
2022/07/01 09:41:00;;;;;;;6.72;4.72;;;44.80;39.90;;;;;;5067958;28;20137;-78
2022/07/01 09:43:29;;;;;;;4.70;4.40;;;45.00;39.30;;;;;;5064328;28;20098;-79
2022/07/01 09:46:00;;;;;;;6.05;4.80;;;45.10;39.10;;;;;;5067746;28;20051;-79
2022/07/01 09:48:42;;;;;;;5.57;4.32;;;45.20;38.40;;;;;;5061433;28;20052;-80
2022/07/01 09:51:11;;;;;;;5.00;4.57;;;45.20;38.80;;;;;;5066027;28;20532;-75
2022/07/01 09:53:38;;;;;;;7.80;6.43;;;45.10;38.80;;;;;;5067015;28;20102;-77
2022/07/01 09:56:06;;;;;;;4.95;4.60;;;45.20;39.10;;;;;;5047740;28;20051;-78
2022/07/01 09:58:35;;;;;;;4.75;4.45;;;45.20;38.30;;;;;;5059973;28;20045;-77
2022/07/01 10:01:05;;;;;;;4.97;4.68;;;45.20;39.20;;;;;;5056899;28;20064;-79
2022/07/01 10:03:33;;;;;;;7.22;5.22;;;45.30;38.20;;;;;;5067748;28;20393;-77
2022/07/01 10:06:19;;;;;;;5.72;4.20;;;45.50;38.90;;;;;;5068598;28;20044;-78
2022/07/01 10:08:59;;;;;;;4.50;4.20;;;45.50;37.60;;;;;;5051534;28;20050;-78
2022/07/01 10:11:37;;;;;;;;;;;45.60;37.80;;;;;;5068637;28;20044;-77
2022/07/01 10:14:07;;;;;;;4.35;3.50;;;45.70;37.00;;;;;;5070092;28;19924;-79
2022/07/01 10:16:38;;;;;;;5.40;4.03;;;45.70;36.90;;;;;;5071994;28;20045;-79
2022/07/01 10:19:27;;;;;;;4.30;4.00;;;45.70;36.80;;;;;;5069869;28;20114;-75
2022/07/01 10:21:56;;;;;;;9.07;3.45;;;45.70;36.90;;;;;;5070718;28;20676;-76
2022/07/01 10:24:26;;;;;;;3.72;3.33;;;45.80;37.20;;;;;;5071851;28;20099;-78
2022/07/01 10:27:00;;;;;;;4.55;3.35;;;45.80;37.70;;;;;;5068642;28;20052;-78
2022/07/01 10:29:29;;;;;;;4.38;3.70;;;45.80;36.80;;;;;;5069545;28;20045;-77
2022/07/01 10:32:04;;;;;;;3.72;3.30;;;45.70;36.80;;;;;;5071471;28;20043;-77
2022/07/01 10:34:39;;;;;;;3.33;3.13;;;45.80;37.30;;;;;;5070591;28;20078;-77
2022/07/01 10:37:09;;;;;;;3.95;3.25;;;46.00;37.70;;;;;;5069360;28;20148;-76
2022/07/01 10:39:59;;;;;;;4.13;3.45;;;46.10;37.60;;;;;;5071079;28;20159;-76
2022/07/01 10:42:31;;;;;;;5.15;3.85;;;46.20;37.10;;;;;;5067132;28;20081;-75
2022/07/01 10:45:06;;;;;;;4.70;4.28;;;46.20;37.20;;;;;;5069414;28;20048;-78
2022/07/01 10:47:35;;;;;;;4.05;3.45;;;46.40;37.00;;;;;;5071757;28;20049;-77
2022/07/01 10:50:09;;;;;;;4.13;3.50;;;46.70;37.40;;;;;;5071728;28;20071;-79
2022/07/01 10:52:38;;;;;;;4.45;3.90;;;46.80;36.60;;;;;;5067169;28;20983;-79
2022/07/01 10:55:07;;;;;;;4.88;3.65;;;46.80;36.10;;;;;;5069961;28;20044;-77
2022/07/01 10:57:38;;;;;;;7.30;3.65;;;46.70;36.50;;;;;;5071021;28;20068;-77
2022/07/01 11:00:34;;;;;;;18.13;4.70;;;46.90;36.70;;;;;;5069037;28;20068;-78
2022/07/01 11:03:18;;;;;;;4.32;3.92;;;46.90;36.20;;;;;;5014611;28;20049;-80
2022/07/01 11:05:48;;;;;;;6.75;3.47;;;47.00;36.50;;;;;;5050829;28;20049;-79
2022/07/01 11:08:15;;;;;;;4.00;3.70;;;47.10;36.40;;;;;;5053431;28;20055;-82
2022/07/01 11:10:43;;;;;;;4.20;3.85;;;46.90;36.00;;;;;;5069269;28;20104;-78
2022/07/01 11:13:15;;;;;;;4.15;3.75;;;46.90;36.30;;;;;;5069790;28;20072;-78
2022/07/01 11:15:47;;;;;;;4.45;4.03;;;47.00;36.30;;;;;;5067347;28;20092;-78
2022/07/01 11:18:17;;;;;;;3.72;3.42;;;47.10;35.30;;;;;;5067776;28;20053;-78
2022/07/01 11:20:44;;;;;;;;;;;47.40;36.30;;;;;;5066164;28;20041;-78
2022/07/01 11:23:12;;;;;;;3.92;3.40;;;47.40;36.00;;;;;;5067602;28;19951;-78
2022/07/01 11:25:41;;;;;;;6.93;3.60;;;47.30;35.70;;;;;;5068861;28;20048;-78
2022/07/01 11:28:08;;;;;;;5.15;3.75;;;47.40;36.50;;;;;;5070615;28;20055;-79
2022/07/01 11:30:35;;;;;;;5.85;4.50;;;47.40;35.80;;;;;;5068419;28;20098;-77
2022/07/01 11:33:02;;;;;;;4.55;3.90;;;47.50;37.10;;;;;;5069061;28;20048;-77
2022/07/01 11:41:08;;;;;;;4.30;4.00;;;47.90;36.40;;;;;;5066374;28;20048;-77
2022/07/01 11:43:38;;;;;;;4.35;4.15;;;48.00;35.60;;;;;;5070323;28;20045;-77
2022/07/01 11:46:07;;;;;;;6.43;4.32;;;47.90;35.20;;;;;;5061733;28;20055;-76
2022/07/01 11:48:39;;;;;;;5.13;4.53;;;47.90;35.00;;;;;;5046805;28;20047;-78
2022/07/01 11:51:11;;;;;;;4.45;4.15;;;47.90;35.50;;;;;;5065557;28;20057;-77
2022/07/01 11:53:40;;;;;;;5.70;4.22;;;48.10;35.90;;;;;;5068274;28;20052;-76
2022/07/01 11:56:07;;;;;;;4.28;3.97;;;48.00;34.80;;;;;;5064650;28;20049;-78
2022/07/01 11:58:49;;;;;;;6.60;4.43;;;48.00;34.70;;;;;;5067615;28;20056;-77
2022/07/01 12:01:28;;;;;;;4.78;4.32;;;48.10;34.90;;;;;;5068933;28;20057;-76
2022/07/01 12:03:59;;;;;;;4.20;3.80;;;48.10;34.60;;;;;;5067657;28;20052;-76
2022/07/01 12:06:28;;;;;;;4.82;4.30;;;47.90;34.70;;;;;;5048643;28;20048;-76
2022/07/01 12:08:56;;;;;;;5.55;3.92;;;48.00;34.90;;;;;;5067894;28;20037;-77
2022/07/01 12:11:25;;;;;;;3.90;3.70;;;48.20;35.40;;;;;;5064289;28;20048;-76
2022/07/01 12:13:53;;;;;;;6.30;4.05;;;48.20;34.60;;;;;;5068099;28;20381;-77
2022/07/01 12:16:20;;;;;;;4.30;3.92;;;48.20;34.10;;;;;;5069255;28;20055;-77
2022/07/01 12:18:59;;;;;;;7.93;4.07;;;48.20;34.30;;;;;;5064635;28;20389;-79
2022/07/01 12:21:30;;;;;;;5.15;4.25;;;48.40;34.10;;;;;;5065804;28;20055;-79
2022/07/01 12:24:11;;;;;;;7.50;4.00;;;48.40;35.10;;;;;;5067801;28;20052;-80
2022/07/01 12:27:03;;;;;;;5.28;3.60;;;48.50;34.00;;;;;;5066033;28;20040;-80
2022/07/01 12:29:32;;;;;;;4.32;4.03;;;48.30;33.80;;;;;;5050195;28;20044;-76
2022/07/01 12:32:01;;;;;;;4.65;4.20;;;48.20;34.50;;;;;;5067720;28;20053;-79
2022/07/01 12:34:40;;;;;;;4.43;4.13;;;48.30;34.10;;;;;;5067491;28;20590;-78
2022/07/01 12:37:13;;;;;;;3.90;3.70;;;48.50;33.10;;;;;;5064946;28;20047;-78
2022/07/01 12:39:46;;;;;;;3.95;3.67;;;48.60;33.00;;;;;;5064056;28;20048;-78
2022/07/01 12:42:25;;;;;;;3.63;3.33;;;48.60;34.10;;;;;;5066293;28;20424;-77
2022/07/01 12:44:55;;;;;;;4.00;3.75;;;48.60;32.60;;;;;;5063630;28;20044;-77
2022/07/01 12:47:28;;;;;;;4.57;3.65;;;48.50;33.30;;;;;;5066733;28;20040;-77
2022/07/01 12:50:19;;;;;;;4.13;3.80;;;48.50;32.30;;;;;;5063733;28;20139;-77
2022/07/01 12:53:00;;;;;;;11.90;4.50;;;48.40;32.30;;;;;;5061168;28;20050;-76
2022/07/01 12:55:31;;;;;;;4.25;3.38;;;48.50;32.50;;;;;;5066450;28;20505;-77
2022/07/01 12:58:00;;;;;;;4.25;3.80;;;48.20;32.40;;;;;;5064376;28;20058;-77
2022/07/01 13:00:29;;;;;;;4.82;3.80;;;48.10;32.90;;;;;;5066574;28;20106;-78
2022/07/01 13:02:58;;;;;;;4.30;3.65;;;48.20;33.20;;;;;;5064551;28;20049;-78
2022/07/01 13:05:25;;;;;;;6.05;5.50;;;48.40;32.30;;;;;;5065545;28;20045;-79